Time;durP1;ratioP1;P1;durP2;ratioP2;P2;SDS_P1;SDS_P2;PMS_P1;PMS_P2;Temp;Humidity;BMP_temperature;BMP_pressure;BME280_temperature;BME280_humidity;BME280_pressure;Samples;Min_cycle;Max_cycle;Signal;HPM_P1;HPM_P2
2021/03/23 00:00:29;;;;;;;7.05;5.30;;;;;;;21.07;33.70;102076.72;5052015;28;20103;-77
2021/03/23 00:03:05;;;;;;;6.40;4.50;;;;;;;21.02;33.69;102074.19;5050687;28;20033;-77
2021/03/23 00:05:31;;;;;;;7.95;5.45;;;;;;;20.92;33.97;102075.47;5050666;28;20036;-77
2021/03/23 00:07:56;;;;;;;9.48;5.03;;;;;;;20.99;33.74;102074.88;5050539;28;20036;-79
2021/03/23 00:10:26;;;;;;;6.35;5.13;;;;;;;20.99;33.75;102074.88;5053165;28;20033;-78
2021/03/23 00:12:52;;;;;;;6.22;5.13;;;;;;;21.07;33.72;102068.38;5055533;28;20048;-77
2021/03/23 00:15:20;;;;;;;6.03;4.70;;;;;;;21.03;33.67;102068.28;5054054;28;20021;-77
2021/03/23 00:17:46;;;;;;;5.82;4.65;;;;;;;21.03;33.63;102073.84;5055702;28;20029;-78
2021/03/23 00:20:14;;;;;;;6.90;4.70;;;;;;;21.07;33.59;102065.59;5055564;28;20028;-77
2021/03/23 00:22:40;;;;;;;6.88;5.65;;;;;;;21.05;33.72;102060.41;5053302;28;20471;-77
2021/03/23 00:25:09;;;;;;;7.05;4.90;;;;;;;21.10;33.56;102059.34;5055500;28;20036;-78
2021/03/23 00:27:35;;;;;;;5.72;5.13;;;;;;;21.11;33.73;102065.72;5055123;28;20028;-77
2021/03/23 00:30:01;;;;;;;6.22;4.55;;;;;;;21.11;33.70;102060.97;5055138;28;20093;-77
2021/03/23 00:32:27;;;;;;;7.25;5.40;;;;;;;21.06;33.86;102055.66;5055424;28;20483;-78
2021/03/23 00:34:53;;;;;;;7.20;5.65;;;;;;;21.04;33.75;102060.75;5054069;28;20029;-77
2021/03/23 00:37:19;;;;;;;6.95;5.45;;;;;;;20.99;33.91;102052.66;5055057;28;20108;-78
2021/03/23 00:39:45;;;;;;;7.30;4.63;;;;;;;21.03;33.87;102048.84;5055189;28;20021;-76
2021/03/23 00:42:10;;;;;;;6.35;4.95;;;;;;;20.98;33.87;102051.03;5055244;28;20047;-77
2021/03/23 00:44:36;;;;;;;6.15;4.63;;;;;;;20.99;33.97;102047.09;5054992;28;20025;-76
2021/03/23 00:47:03;;;;;;;6.72;4.38;;;;;;;20.89;34.01;102040.06;5053798;28;20360;-77
2021/03/23 00:49:29;;;;;;;6.72;4.63;;;;;;;20.98;33.72;102039.94;5053700;28;20025;-76
2021/03/23 00:51:55;;;;;;;5.70;4.40;;;;;;;20.92;33.88;102036.59;5055035;28;20044;-76
2021/03/23 00:54:21;;;;;;;6.40;4.95;;;;;;;20.91;33.88;102039.72;5054917;28;20029;-76
2021/03/23 00:56:47;;;;;;;4.75;3.78;;;;;;;20.80;33.97;102028.31;5054924;28;20021;-76
2021/03/23 00:59:13;;;;;;;6.60;4.35;;;;;;;20.90;33.90;102033.34;5053551;28;20037;-76
2021/03/23 01:01:39;;;;;;;6.75;4.32;;;;;;;20.87;33.81;102028.53;5054893;28;20039;-76
2021/03/23 01:04:04;;;;;;;7.25;4.78;;;;;;;20.84;34.08;102028.41;5054616;28;20492;-78
2021/03/23 01:06:30;;;;;;;5.82;4.20;;;;;;;20.99;33.76;102031.25;5053091;28;20090;-77
2021/03/23 01:08:56;;;;;;;5.43;3.90;;;;;;;20.91;33.72;102026.63;5053303;28;20028;-77
2021/03/23 01:11:21;;;;;;;6.15;4.50;;;;;;;20.88;33.63;102024.56;5086752;28;20220;-77
2021/03/23 01:13:47;;;;;;;5.35;4.22;;;;;;;20.85;33.82;102028.03;5054384;28;20560;-77
2021/03/23 01:16:13;;;;;;;4.80;4.05;;;;;;;20.80;33.86;102022.75;5054083;28;20573;-78
2021/03/23 01:18:38;;;;;;;5.20;4.28;;;;;;;20.82;33.83;102016.84;5054240;28;20402;-77
2021/03/23 01:21:05;;;;;;;6.60;3.60;;;;;;;20.76;33.86;102011.53;5052711;28;20029;-78
2021/03/23 01:23:31;;;;;;;4.38;3.58;;;;;;;20.64;34.10;102005.22;5054505;28;20063;-77
2021/03/23 01:25:57;;;;;;;5.32;4.05;;;;;;;20.69;33.90;102010.50;5052156;28;20032;-78
2021/03/23 01:28:23;;;;;;;5.53;3.70;;;;;;;20.64;33.90;102002.44;5053227;28;20061;-77
2021/03/23 01:30:48;;;;;;;5.28;4.07;;;;;;;20.68;34.01;102006.09;5054212;28;20029;-77
2021/03/23 01:33:14;;;;;;;5.30;3.90;;;;;;;20.70;33.75;102001.00;5054162;28;20063;-77
2021/03/23 01:35:40;;;;;;;5.85;4.30;;;;;;;20.88;33.44;102007.91;5053923;28;20049;-77
2021/03/23 01:38:06;;;;;;;6.00;3.22;;;;;;;20.84;33.49;102000.63;5052935;28;20108;-77
2021/03/23 01:40:34;;;;;;;5.13;3.63;;;;;;;20.85;33.35;101996.69;5052987;28;20060;-77
2021/03/23 01:43:02;;;;;;;4.93;3.78;;;;;;;20.89;33.16;101998.41;5052936;28;20391;-78
2021/03/23 01:45:37;;;;;;;5.25;2.83;;;;;;;20.78;33.20;101997.28;5054001;28;20031;-77
2021/03/23 01:48:19;;;;;;;4.53;3.35;;;;;;;20.80;33.30;101991.38;5052627;28;20056;-77
2021/03/23 01:50:48;;;;;;;3.55;2.92;;;;;;;20.90;32.94;101983.34;5053710;28;20032;-77
2021/03/23 01:53:20;;;;;;;5.43;3.17;;;;;;;20.98;32.99;101989.91;5053928;28;20052;-77
2021/03/23 01:55:46;;;;;;;4.05;2.67;;;;;;;20.94;32.94;101978.72;5053947;28;20055;-78
2021/03/23 01:58:11;;;;;;;6.90;3.10;;;;;;;20.94;32.91;101975.94;5052584;28;20052;-77
2021/03/23 02:00:38;;;;;;;7.25;3.03;;;;;;;20.85;33.02;101977.22;5053725;28;20382;-78
2021/03/23 02:03:07;;;;;;;3.58;2.15;;;;;;;20.85;33.18;101971.69;5053568;28;20021;-78
2021/03/23 02:05:33;;;;;;;3.27;2.23;;;;;;;20.67;33.07;101973.94;5052251;28;20029;-77
2021/03/23 02:08:01;;;;;;;4.03;2.65;;;;;;;20.52;33.39;101971.91;5052398;28;20269;-77
2021/03/23 02:10:27;;;;;;;6.38;2.63;;;;;;;20.54;33.57;101964.03;5053534;28;20490;-76
2021/03/23 02:12:54;;;;;;;5.82;2.00;;;;;;;20.60;33.32;101960.66;5052907;28;20044;-78
2021/03/23 02:15:23;;;;;;;3.38;2.05;;;;;;;20.44;33.49;101954.22;5052173;28;20032;-77
2021/03/23 02:18:07;;;;;;;5.32;2.50;;;;;;;20.45;33.58;101953.06;5053525;28;20032;-77
2021/03/23 02:20:34;;;;;;;3.97;2.42;;;;;;;20.52;33.48;101952.47;5052934;28;20426;-76
2021/03/23 02:23:09;;;;;;;2.47;1.83;;;;;;;20.43;33.42;101950.63;5053034;28;20541;-77
2021/03/23 02:25:36;;;;;;;5.22;2.17;;;;;;;20.49;33.37;101946.47;5053313;28;20074;-76
2021/03/23 02:28:02;;;;;;;4.05;2.28;;;;;;;20.60;33.13;101940.41;5053113;28;20029;-77
2021/03/23 02:30:37;;;;;;;3.75;2.25;;;;;;;20.67;32.94;101940.63;5051779;28;20025;-77
2021/03/23 02:33:03;;;;;;;2.83;1.77;;;;;;;20.74;32.70;101933.31;5052461;28;20036;-76
2021/03/23 02:35:32;;;;;;;3.97;1.95;;;;;;;20.64;32.88;101942.16;5052675;28;20033;-77
2021/03/23 02:37:59;;;;;;;3.03;2.08;;;;;;;20.68;32.86;101936.69;5053008;28;20056;-78
2021/03/23 02:40:26;;;;;;;3.97;2.42;;;;;;;20.75;32.50;101931.34;5052713;28;20029;-78
2021/03/23 02:42:52;;;;;;;4.40;2.00;;;;;;;20.66;32.83;101937.03;5051690;28;20033;-76
2021/03/23 02:45:18;;;;;;;3.80;1.90;;;;;;;20.69;32.58;101929.97;5053069;28;20032;-77
2021/03/23 02:47:43;;;;;;;3.25;2.00;;;;;;;20.65;32.61;101937.41;5052795;28;20025;-77
2021/03/23 02:50:09;;;;;;;4.85;1.98;;;;;;;20.70;32.63;101926.81;5051618;28;20025;-77
2021/03/23 02:52:35;;;;;;;3.45;2.05;;;;;;;20.56;32.61;101926.44;5052304;28;20431;-78
2021/03/23 02:55:01;;;;;;;1.83;1.52;;;;;;;20.57;32.53;101921.69;5052547;28;20115;-77
2021/03/23 02:57:26;;;;;;;3.88;2.05;;;;;;;20.46;32.79;101924.94;5052718;28;20100;-78
2021/03/23 02:59:52;;;;;;;3.22;2.15;;;;;;;20.42;32.88;101920.44;5051335;28;20662;-77
2021/03/23 03:02:17;;;;;;;3.63;1.70;;;;;;;20.41;32.75;101916.84;5051371;28;20029;-77
2021/03/23 03:04:43;;;;;;;2.88;1.50;;;;;;;20.45;32.72;101912.22;5051340;28;20110;-77
2021/03/23 03:07:09;;;;;;;3.20;1.60;;;;;;;20.45;32.64;101912.22;5051378;28;20025;-78
2021/03/23 03:09:35;;;;;;;2.38;1.50;;;;;;;20.44;32.71;101913.41;5051437;28;20031;-76
2021/03/23 03:12:00;;;;;;;3.83;2.00;;;;;;;20.45;32.66;101906.69;5051727;28;20052;-77
2021/03/23 03:14:26;;;;;;;5.88;2.20;;;;;;;20.38;32.86;101906.44;5051141;28;20052;-77
2021/03/23 03:16:51;;;;;;;3.65;1.70;;;;;;;20.44;32.62;101893.97;5052214;28;20032;-78
2021/03/23 03:19:18;;;;;;;2.50;1.83;;;;;;;20.42;32.78;101901.00;5052550;28;20090;-77
2021/03/23 03:21:44;;;;;;;11.05;2.35;;;;;;;20.49;32.60;101895.69;5052415;28;20021;-77
2021/03/23 03:24:10;;;;;;;3.03;1.83;;;;;;;20.41;32.76;101888.28;5050585;28;20051;-77
2021/03/23 03:26:35;;;;;;;7.55;2.72;;;;;;;20.43;32.75;101885.97;5052322;28;20035;-77
2021/03/23 03:29:02;;;;;;;3.85;2.10;;;;;;;20.41;32.48;101880.78;5052282;28;20044;-78
2021/03/23 03:31:30;;;;;;;25.33;5.90;;;;;;;20.34;32.98;101888.88;5052108;28;20079;-77
2021/03/23 03:33:57;;;;;;;4.50;2.55;;;;;;;20.37;32.80;101888.16;5050732;28;20102;-77
2021/03/23 03:36:25;;;;;;;4.00;2.40;;;;;;;20.40;32.82;101886.66;5049893;28;20111;-77
2021/03/23 03:38:52;;;;;;;4.15;2.17;;;;;;;20.43;32.84;101884.00;5050977;28;20514;-77
2021/03/23 03:41:18;;;;;;;4.30;2.50;;;;;;;20.48;32.80;101877.44;5050819;28;20031;-77
2021/03/23 03:43:43;;;;;;;4.55;2.33;;;;;;;20.49;32.84;101879.84;5053866;28;20104;-77
2021/03/23 03:46:10;;;;;;;6.75;2.25;;;;;;;20.45;33.01;101886.44;5054485;28;20035;-77
2021/03/23 03:48:36;;;;;;;4.07;2.13;;;;;;;20.47;32.66;101882.13;5056285;28;20475;-77
2021/03/23 03:51:02;;;;;;;4.65;2.38;;;;;;;20.41;33.17;101878.00;5054763;28;20116;-77
2021/03/23 03:53:28;;;;;;;3.75;2.30;;;;;;;20.43;32.80;101874.84;5055846;28;20422;-77
2021/03/23 03:55:54;;;;;;;6.50;2.00;;;;;;;20.42;32.89;101879.59;5054821;28;20025;-76
2021/03/23 03:58:20;;;;;;;3.65;2.42;;;;;;;20.39;33.08;101871.16;5054703;28;20418;-77
2021/03/23 04:00:46;;;;;;;16.90;4.45;;;;;;;20.22;33.28;101872.25;5055950;28;20064;-78
2021/03/23 04:03:23;;;;;;;4.10;2.50;;;;;;;20.30;33.08;101867.72;5045811;28;20086;-77
2021/03/23 04:05:50;;;;;;;4.80;2.60;;;;;;;20.32;32.99;101857.88;5035890;28;20041;-77
2021/03/23 04:08:20;;;;;;;3.38;1.98;;;;;;;20.34;32.93;101868.66;5050661;28;20436;-78
2021/03/23 04:10:49;;;;;;;3.17;2.08;;;;;;;20.37;32.99;101870.72;5050390;28;20033;-77
2021/03/23 04:13:15;;;;;;;4.35;2.08;;;;;;;20.30;33.15;101865.75;5050922;28;20429;-77
2021/03/23 04:15:45;;;;;;;4.30;2.22;;;;;;;20.55;32.63;101860.13;5035827;28;20037;-78
2021/03/23 04:18:12;;;;;;;;;;;;;;;20.40;32.78;101856.13;5036263;28;20141;-77
2021/03/23 04:20:38;;;;;;;2.85;1.90;;;;;;;20.31;32.99;101859.03;5035742;28;19913;-77
2021/03/23 04:23:07;;;;;;;2.97;1.90;;;;;;;20.38;32.78;101862.03;5034476;28;20384;-77
2021/03/23 04:25:33;;;;;;;6.22;1.95;;;;;;;20.47;32.66;101848.03;5035691;28;20030;-78
2021/03/23 04:27:59;;;;;;;4.53;2.58;;;;;;;20.54;32.57;101847.41;5035731;28;20072;-77
2021/03/23 04:30:26;;;;;;;3.65;2.10;;;;;;;20.54;32.58;101848.22;5050772;28;20033;-77
2021/03/23 04:32:55;;;;;;;3.70;2.13;;;;;;;20.56;32.42;101845.13;5034359;28;20029;-77
2021/03/23 04:35:26;;;;;;;3.38;1.90;;;;;;;20.55;32.53;101851.81;5050717;28;20034;-78
2021/03/23 04:37:53;;;;;;;3.30;1.95;;;;;;;20.58;32.54;101856.66;5035384;28;20109;-77
2021/03/23 04:40:19;;;;;;;3.47;2.25;;;;;;;20.65;32.35;101852.13;5035331;28;20025;-77
2021/03/23 04:42:44;;;;;;;7.00;2.08;;;;;;;20.65;32.38;101854.09;5035342;28;20037;-77
2021/03/23 04:45:10;;;;;;;3.92;1.63;;;;;;;20.66;32.62;101850.94;5034999;28;20096;-77
2021/03/23 04:47:36;;;;;;;2.83;1.98;;;;;;;20.59;32.58;101841.63;5050511;28;20113;-77
2021/03/23 04:50:03;;;;;;;2.88;2.03;;;;;;;20.64;32.42;101849.69;5035149;28;20105;-78
2021/03/23 04:52:28;;;;;;;8.05;2.40;;;;;;;20.64;32.63;101841.38;5035039;28;20029;-77
2021/03/23 04:54:54;;;;;;;3.40;2.00;;;;;;;20.64;32.65;101841.38;5049468;28;20095;-77
2021/03/23 04:57:19;;;;;;;3.15;1.80;;;;;;;20.58;32.18;101832.47;5034829;28;20049;-77
2021/03/23 04:59:45;;;;;;;6.18;2.67;;;;;;;20.49;32.85;101835.41;5035168;28;20033;-77
2021/03/23 05:02:11;;;;;;;3.22;1.52;;;;;;;20.52;32.52;101836.66;5050337;28;20506;-78
2021/03/23 05:04:36;;;;;;;5.90;2.10;;;;;;;20.45;32.79;101830.91;5034930;28;20491;-77
2021/03/23 05:07:02;;;;;;;4.13;1.70;;;;;;;20.36;33.04;101825.50;5034879;28;20026;-77
2021/03/23 05:09:27;;;;;;;2.90;1.52;;;;;;;20.38;32.66;101828.72;5050195;28;20384;-78
2021/03/23 05:11:53;;;;;;;2.83;1.80;;;;;;;20.48;32.37;101833.00;5034400;28;20029;-77
2021/03/23 05:14:18;;;;;;;4.65;1.52;;;;;;;20.23;32.66;101832.25;5049998;28;20539;-77
2021/03/23 05:16:44;;;;;;;5.68;2.33;;;;;;;20.15;32.61;101833.19;5034720;28;20164;-77
2021/03/23 05:19:10;;;;;;;2.78;1.88;;;;;;;20.16;32.45;101827.28;5049737;28;20395;-77
2021/03/23 05:21:35;;;;;;;2.92;1.25;;;;;;;20.18;32.21;101836.09;5034643;28;20025;-78
2021/03/23 05:24:02;;;;;;;3.80;1.67;;;;;;;20.22;31.99;101823.13;5034620;28;20387;-77
2021/03/23 05:26:29;;;;;;;4.32;1.85;;;;;;;20.11;31.97;101812.88;5034491;28;20497;-77
2021/03/23 05:28:55;;;;;;;5.00;1.60;;;;;;;20.17;31.70;101817.81;5034384;28;20078;-78
2021/03/23 05:31:21;;;;;;;3.00;1.30;;;;;;;20.15;31.76;101822.09;5034301;28;20034;-77
2021/03/23 05:33:52;;;;;;;4.05;1.55;;;;;;;20.15;31.78;101811.81;5032986;28;20037;-77
2021/03/23 05:36:18;;;;;;;8.65;1.50;;;;;;;20.09;31.83;101815.97;5033162;28;20396;-78
2021/03/23 05:38:44;;;;;;;7.53;2.38;;;;;;;19.85;32.02;101813.28;5049556;28;20025;-78
2021/03/23 05:41:48;;;;;;;2.85;1.30;;;;;;;19.98;31.63;101809.31;5032886;28;20130;-77
2021/03/23 05:44:19;;;;;;;2.75;1.45;;;;;;;20.03;31.60;101816.59;5033514;28;20468;-77
2021/03/23 05:46:44;;;;;;;2.90;1.67;;;;;;;19.87;31.86;101811.75;5032779;28;20033;-78
2021/03/23 05:49:28;;;;;;;4.28;1.63;;;;;;;19.82;31.50;101802.91;5032667;28;20025;-78
2021/03/23 05:52:03;;;;;;;2.60;1.75;;;;;;;20.00;31.22;101809.78;5049241;28;20030;-78
2021/03/23 05:54:55;;;;;;;2.00;1.27;;;;;;;19.98;31.26;101805.75;5049087;28;20033;-78
2021/03/23 05:57:40;;;;;;;5.88;1.42;;;;;;;19.92;31.18;101803.22;5032715;28;20045;-77
2021/03/23 06:00:16;;;;;;;2.58;1.73;;;;;;;19.92;31.22;101783.78;5032587;28;20037;-78
2021/03/23 06:02:53;;;;;;;1.90;1.27;;;;;;;19.85;31.18;101789.13;5033827;28;20048;-77
2021/03/23 06:05:28;;;;;;;5.32;1.63;;;;;;;19.90;31.16;101788.88;5033793;28;20017;-76
2021/03/23 06:07:59;;;;;;;13.23;3.35;;;;;;;19.65;31.52;101779.84;5033752;28;20029;-78
2021/03/23 06:10:24;;;;;;;4.75;2.05;;;;;;;19.85;31.07;101777.22;5032409;28;20029;-77
2021/03/23 06:13:17;;;;;;;3.33;1.38;;;;;;;19.87;31.09;101778.47;5033154;28;20061;-77
2021/03/23 06:16:03;;;;;;;2.78;1.45;;;;;;;19.60;31.45;101779.25;5048802;28;20036;-77
2021/03/23 06:18:34;;;;;;;8.00;2.05;;;;;;;19.82;31.16;101775.16;5032176;28;20069;-77
2021/03/23 06:21:18;;;;;;;4.38;2.03;;;;;;;19.84;31.15;101778.38;5033325;28;20025;-77
2021/03/23 06:24:02;;;;;;;4.93;1.67;;;;;;;19.74;31.18;101770.56;5048860;28;20037;-77
2021/03/23 06:26:40;;;;;;;5.38;1.80;;;;;;;19.81;31.13;101777.13;5033427;28;20058;-77
2021/03/23 06:29:08;;;;;;;5.97;1.80;;;;;;;19.80;31.25;101786.63;5032869;28;20396;-77
2021/03/23 06:32:11;;;;;;;10.05;2.53;;;;;;;19.62;31.47;101780.50;5048003;28;20040;-76
2021/03/23 06:34:37;;;;;;;3.78;1.70;;;;;;;19.70;31.43;101770.44;5033189;28;20029;-76
2021/03/23 06:37:31;;;;;;;3.95;2.10;;;;;;;19.77;31.21;101767.88;5032836;28;20035;-77
2021/03/23 06:39:58;;;;;;;2.83;1.70;;;;;;;19.78;31.16;101769.50;5031037;28;20488;-77
2021/03/23 06:42:41;;;;;;;3.08;2.10;;;;;;;19.75;31.14;101766.63;5047835;28;20037;-78
2021/03/23 06:45:25;;;;;;;5.72;1.95;;;;;;;19.87;31.03;101766.59;5051585;28;20132;-77
2021/03/23 06:47:51;;;;;;;16.77;4.53;;;;;;;19.69;31.47;101757.75;5052973;28;20029;-77
2021/03/23 06:50:29;;;;;;;4.35;2.33;;;;;;;19.92;30.88;101753.28;5051476;28;20025;-77
2021/03/23 06:53:09;;;;;;;6.07;2.42;;;;;;;19.56;31.46;101765.25;5052893;28;20033;-78
2021/03/23 06:55:36;;;;;;;3.72;2.00;;;;;;;19.80;31.19;101749.72;5052992;28;20037;-77
2021/03/23 06:58:03;;;;;;;6.40;2.33;;;;;;;19.74;31.25;101743.66;5052748;28;20067;-77
2021/03/23 07:00:34;;;;;;;17.05;3.60;;;;;;;19.75;31.28;101750.81;5052670;28;20112;-78
2021/03/23 07:03:24;;;;;;;17.20;2.60;;;;;;;19.34;31.98;101743.56;5051711;28;20028;-78
2021/03/23 07:05:52;;;;;;;3.22;1.88;;;;;;;19.65;31.37;101742.97;5050405;28;20426;-78
2021/03/23 07:08:27;;;;;;;10.88;2.67;;;;;;;19.58;31.53;101746.34;5051758;28;20021;-77
2021/03/23 07:10:53;;;;;;;4.07;2.03;;;;;;;19.67;31.34;101747.00;5051382;28;20039;-77
2021/03/23 07:13:30;;;;;;;5.43;2.10;;;;;;;19.73;31.27;101738.47;5050369;28;20079;-78
2021/03/23 07:16:11;;;;;;;9.65;2.47;;;;;;;19.49;31.74;101726.22;5050847;28;20522;-77
2021/03/23 07:18:40;;;;;;;2.85;1.90;;;;;;;19.82;31.24;101725.25;5050748;28;20025;-76
2021/03/23 07:21:12;;;;;;;4.45;1.73;;;;;;;19.75;31.26;101723.06;5053261;28;20497;-78
2021/03/23 07:23:43;;;;;;;11.32;3.13;;;;;;;19.79;31.12;101717.63;5054629;28;20028;-78
2021/03/23 07:26:29;;;;;;;6.75;2.13;;;;;;;19.71;31.30;101716.59;5054845;28;20471;-78
2021/03/23 07:29:10;;;;;;;9.80;2.80;;;;;;;19.81;31.28;101705.03;5054710;28;20024;-78
2021/03/23 07:31:59;;;;;;;19.27;4.72;;;;;;;19.66;31.47;101712.13;5053694;28;20112;-77
2021/03/23 07:35:08;;;;;;;8.88;2.45;;;;;;;19.72;31.20;101706.31;5053209;28;20388;-77
2021/03/23 07:37:37;;;;;;;22.30;12.52;;;;;;;19.94;30.85;101705.78;5050868;28;20135;-79
2021/03/23 07:40:35;;;;;;;12.25;8.52;;;;;;;19.83;31.09;101702.72;5050230;28;20387;-77
2021/03/23 07:43:04;;;;;;;7.47;5.47;;;;;;;19.70;31.43;101708.66;5049257;28;20033;-77
2021/03/23 07:45:40;;;;;;;8.95;4.72;;;;;;;19.60;31.46;101696.09;5051146;28;20033;-77
2021/03/23 07:48:22;;;;;;;4.93;2.90;;;;;;;19.55;31.14;101694.31;5051831;28;20034;-79
2021/03/23 07:50:52;;;;;;;8.57;3.17;;;;;;;19.59;31.33;101698.06;5051909;28;20448;-77
2021/03/23 07:53:30;;;;;;;14.10;8.07;;;;;;;19.78;31.14;101700.19;5051874;28;20017;-77
2021/03/23 07:56:17;;;;;;;9.95;6.03;;;;;;;19.77;31.10;101695.78;5052511;28;20387;-85
2021/03/23 07:59:02;;;;;;;12.32;4.72;;;;;;;19.72;31.16;101701.56;5035574;28;20028;-75
2021/03/23 08:01:43;;;;;;;13.20;3.60;;;;;;;19.94;30.78;101700.22;5052417;28;20031;-77
2021/03/23 08:04:22;;;;;;;7.10;2.47;;;;;;;19.69;31.35;101688.44;5051763;28;20112;-80
2021/03/23 08:07:11;;;;;;;17.42;4.35;;;;;;;19.60;31.28;101693.31;5050795;28;20017;-78
2021/03/23 08:10:08;;;;;;;4.90;2.35;;;;;;;19.65;31.39;101690.31;5050965;28;20021;-77
2021/03/23 08:13:02;;;;;;;4.80;2.70;;;;;;;19.72;31.42;101690.50;5051828;28;20091;-79
2021/03/23 08:15:55;;;;;;;10.57;3.30;;;;;;;19.84;30.94;101704.31;5051480;28;20560;-79
2021/03/23 08:18:37;;;;;;;9.73;3.08;;;;;;;19.99;30.79;101693.63;5051742;28;20052;-78
2021/03/23 08:21:15;;;;;;;12.77;3.22;;;;;;;19.47;31.53;101695.28;5052009;28;20091;-78
2021/03/23 08:23:46;;;;;;;7.32;2.35;;;;;;;19.64;31.25;101688.66;5050524;28;20033;-78
2021/03/23 08:26:22;;;;;;;3.85;2.08;;;;;;;19.63;31.34;101681.50;5051757;28;20018;-76
2021/03/23 08:29:27;;;;;;;6.80;2.60;;;;;;;19.30;31.81;101699.13;5051833;28;20040;-76
2021/03/23 08:32:02;;;;;;;31.15;6.10;;;;;;;19.71;30.93;101694.41;5054529;28;20056;-77
2021/03/23 08:34:59;;;;;;;7.47;2.13;;;;;;;19.61;31.33;101692.16;5054995;28;20021;-77
2021/03/23 08:37:47;;;;;;;11.85;2.95;;;;;;;19.78;31.33;101689.09;5052600;28;20372;-78
2021/03/23 08:40:33;;;;;;;9.68;2.55;;;;;;;19.69;31.14;101693.97;5051761;28;20063;-76
2021/03/23 08:43:00;;;;;;;4.13;2.10;;;;;;;19.93;30.87;101685.56;5053807;28;20033;-77
2021/03/23 08:45:30;;;;;;;7.47;2.42;;;;;;;19.91;30.96;101676.78;5055108;28;20344;-78
2021/03/23 08:47:58;;;;;;;;;;;;;;;19.51;31.43;101679.56;5054085;28;20025;-78
2021/03/23 08:50:34;;;;;;;5.95;2.20;;;;;;;19.99;31.00;101686.13;5053767;28;19913;-78
2021/03/23 08:53:02;;;;;;;3.95;1.73;;;;;;;20.08;30.89;101675.66;5053628;28;20403;-78
2021/03/23 08:55:30;;;;;;;5.20;2.20;;;;;;;19.92;31.01;101683.13;5054392;28;20033;-79
2021/03/23 08:58:11;;;;;;;7.80;2.20;;;;;;;19.95;30.96;101672.16;5054868;28;20033;-79
2021/03/23 09:00:37;;;;;;;9.15;2.58;;;;;;;19.83;31.29;101668.63;5053561;28;20027;-79
2021/03/23 09:03:09;;;;;;;7.10;3.00;;;;;;;20.03;30.94;101667.63;5054426;28;20468;-78
2021/03/23 09:05:50;;;;;;;5.20;2.35;;;;;;;19.83;31.32;101661.09;5051587;28;20025;-79
2021/03/23 09:08:30;;;;;;;6.05;2.35;;;;;;;20.05;30.87;101656.16;5052340;28;20530;-78
2021/03/23 09:11:06;;;;;;;9.73;2.47;;;;;;;20.06;30.93;101643.88;5052793;28;20028;-77
2021/03/23 09:13:35;;;;;;;7.22;2.50;;;;;;;20.19;30.84;101645.44;5053081;28;20041;-77
2021/03/23 09:16:13;;;;;;;10.82;3.25;;;;;;;20.05;31.24;101653.38;5052100;28;20032;-77
2021/03/23 09:19:00;;;;;;;7.97;2.83;;;;;;;20.26;30.95;101640.06;5054432;28;20017;-76
2021/03/23 09:21:52;;;;;;;10.55;4.03;;;;;;;20.17;31.18;101636.63;5052201;28;20505;-78
2021/03/23 09:24:30;;;;;;;10.38;3.45;;;;;;;20.07;31.20;101640.75;5051326;28;20040;-79
2021/03/23 09:26:57;;;;;;;6.38;2.65;;;;;;;20.21;31.10;101637.56;5052084;28;20021;-77
2021/03/23 09:29:32;;;;;;;7.47;2.22;;;;;;;20.19;31.07;101637.91;5052031;28;20495;-79
2021/03/23 09:32:31;;;;;;;6.10;2.42;;;;;;;20.31;31.00;101631.47;5052304;28;20052;-79
2021/03/23 09:37:31;;;;;;;5.38;2.53;;;;;;;20.39;30.58;101632.44;5053881;28;20028;-79
2021/03/23 09:39:56;;;;;;;8.65;2.35;;;;;;;20.34;30.93;101616.09;5052462;28;20044;-80
2021/03/23 09:42:26;;;;;;;6.50;2.80;;;;;;;20.33;30.99;101615.28;5052130;28;20479;-79
2021/03/23 09:45:22;;;;;;;6.70;2.80;;;;;;;20.59;30.43;101611.16;5050962;28;20096;-79
2021/03/23 09:47:56;;;;;;;5.05;2.85;;;;;;;20.71;30.56;101620.22;5053104;28;20043;-77
2021/03/23 09:50:24;;;;;;;10.13;3.03;;;;;;;20.55;30.84;101610.25;5051005;28;20021;-75
2021/03/23 09:52:59;;;;;;;5.55;2.00;;;;;;;20.87;30.60;101605.47;5052123;28;20063;-77
2021/03/23 09:55:25;;;;;;;5.88;2.50;;;;;;;20.78;30.91;101597.31;5050292;28;20491;-77
2021/03/23 09:57:54;;;;;;;18.35;4.28;;;;;;;20.61;30.88;101592.97;5053312;28;20036;-76
2021/03/23 10:00:27;;;;;;;5.93;2.40;;;;;;;21.03;30.39;101587.59;5052078;28;20534;-75
2021/03/23 10:02:53;;;;;;;17.40;4.05;;;;;;;21.13;30.29;101582.63;5051888;28;20053;-77
2021/03/23 10:05:20;;;;;;;9.60;3.30;;;;;;;21.24;30.44;101586.44;5051027;28;20583;-78
2021/03/23 10:07:47;;;;;;;4.80;2.90;;;;;;;21.07;30.43;101576.53;5064320;28;20028;-79
2021/03/23 10:10:27;;;;;;;6.40;3.05;;;;;;;21.52;29.96;101580.66;5052387;28;20108;-76
2021/03/23 10:12:59;;;;;;;27.08;5.57;;;;;;;21.49;29.76;101581.41;5053641;28;20144;-76
2021/03/23 10:15:32;;;;;;;11.18;3.55;;;;;;;21.92;29.22;101580.25;5066841;28;20029;-77
2021/03/23 10:18:16;;;;;;;11.70;3.38;;;;;;;21.63;29.61;101572.56;5065366;28;20552;-77
2021/03/23 10:20:46;;;;;;;5.15;2.92;;;;;;;22.15;29.03;101574.72;5062682;28;20027;-78
2021/03/23 10:23:12;;;;;;;8.05;3.38;;;;;;;22.07;29.24;101579.34;5070962;28;20028;-77
2021/03/23 10:25:43;;;;;;;7.20;2.80;;;;;;;21.81;29.32;101565.34;5060920;28;20513;-78
2021/03/23 10:28:34;;;;;;;8.35;2.85;;;;;;;21.85;29.18;101558.69;5052504;28;20387;-78
2021/03/23 10:31:07;;;;;;;7.15;2.50;;;;;;;22.28;28.88;101566.97;5050748;28;20068;-80
2021/03/23 10:33:36;;;;;;;9.23;2.85;;;;;;;22.13;29.15;101561.16;5052579;28;20509;-75
2021/03/23 10:36:13;;;;;;;11.43;4.07;;;;;;;21.89;28.90;101564.28;5051388;28;20029;-76
2021/03/23 10:38:40;;;;;;;28.60;7.10;;;;;;;21.69;29.40;101579.41;5052405;28;20029;-76
2021/03/23 10:41:19;;;;;;;7.05;3.95;;;;;;;22.15;28.76;101575.53;5052451;28;20043;-76
2021/03/23 10:43:50;;;;;;;7.68;4.35;;;;;;;22.10;29.03;101566.69;5052390;28;20451;-80
2021/03/23 10:46:40;;;;;;;8.68;2.78;;;;;;;22.04;28.89;101563.38;5052279;28;20403;-81
2021/03/23 10:49:27;;;;;;;5.95;3.22;;;;;;;22.06;29.06;101555.44;5051247;28;20037;-81
2021/03/23 10:52:06;;;;;;;7.88;2.67;;;;;;;22.19;29.13;101553.31;5052392;28;20438;-81
2021/03/23 10:54:37;;;;;;;4.63;2.78;;;;;;;22.31;29.11;101539.19;5051844;28;20487;-81
2021/03/23 10:57:27;;;;;;;6.30;3.10;;;;;;;22.26;29.41;101533.13;5052022;28;20536;-81
2021/03/23 10:59:54;;;;;;;5.80;3.53;;;;;;;22.37;29.28;101534.91;5049979;28;20391;-76
2021/03/23 11:02:29;;;;;;;9.60;3.28;;;;;;;22.31;29.07;101544.75;5051323;28;20054;-80
2021/03/23 11:05:09;;;;;;;4.00;2.78;;;;;;;22.59;28.96;101541.59;5050135;28;20075;-78
2021/03/23 11:08:00;;;;;;;4.57;2.53;;;;;;;22.25;29.61;101534.31;5050555;28;20024;-80
2021/03/23 11:10:32;;;;;;;4.85;2.78;;;;;;;22.73;29.01;101538.22;5045507;28;20037;-78
2021/03/23 11:12:59;;;;;;;6.10;3.58;;;;;;;22.35;29.55;101523.34;5059335;28;20149;-77
2021/03/23 11:15:25;;;;;;;8.13;3.13;;;;;;;22.23;30.17;101539.47;5056681;28;20489;-76
2021/03/23 11:17:53;;;;;;;5.82;3.22;;;;;;;22.79;29.19;101516.41;5049397;28;20063;-76
2021/03/23 11:20:36;;;;;;;8.95;4.18;;;;;;;22.49;29.80;101533.88;5050610;28;20033;-76
2021/03/23 11:23:11;;;;;;;6.38;3.40;;;;;;;22.63;29.62;101508.22;5049966;28;20056;-81
2021/03/23 11:25:36;;;;;;;7.32;3.88;;;;;;;22.61;29.56;101510.59;5050356;28;20029;-76
2021/03/23 11:28:04;;;;;;;6.90;4.05;;;;;;;22.74;29.49;101505.59;5050320;28;20036;-78
2021/03/23 11:30:29;;;;;;;6.13;3.20;;;;;;;22.48;29.99;101470.22;5049941;28;20076;-77
2021/03/23 11:32:55;;;;;;;4.75;3.20;;;;;;;22.44;29.93;101484.09;5050988;28;20499;-76
2021/03/23 11:35:23;;;;;;;6.25;2.95;;;;;;;22.72;29.70;101478.09;5051714;28;20055;-79
2021/03/23 11:37:49;;;;;;;4.15;2.58;;;;;;;22.98;29.56;101471.72;5051517;28;20464;-79
2021/03/23 11:40:15;;;;;;;6.90;3.10;;;;;;;22.69;30.06;101465.75;5051264;28;20027;-76
2021/03/23 11:42:44;;;;;;;10.55;3.78;;;;;;;23.31;28.93;101472.88;5049621;28;20041;-76
2021/03/23 11:45:28;;;;;;;18.38;4.43;;;;;;;22.95;29.24;101472.47;5051241;28;20044;-76
2021/03/23 11:47:56;;;;;;;5.38;3.50;;;;;;;23.31;28.83;101450.56;5048747;28;20025;-77